Time;durP1;ratioP1;P1;durP2;ratioP2;P2;SDS_P1;SDS_P2;PMS_P1;PMS_P2;Temp;Humidity;BMP_temperature;BMP_pressure;BME280_temperature;BME280_humidity;BME280_pressure;Samples;Min_cycle;Max_cycle;Signal;HPM_P1;HPM_P2
2023/11/07 00:02:22;;;;;;;;;;;15.60;85.90;;;;;;4033270;29;19935;-52
2023/11/07 00:05:03;;;;;;;;;;;15.60;86.10;;;;;;4027625;29;19935;-48
2023/11/07 00:07:44;;;;;;;;;;;15.60;86.20;;;;;;4034299;29;19934;-49
2023/11/07 00:10:28;;;;;;;;;;;15.60;86.10;;;;;;4042354;29;19954;-50
2023/11/07 00:13:09;;;;;;;;;;;15.60;85.30;;;;;;4042394;29;19998;-51
2023/11/07 00:15:52;;;;;;;;;;;15.70;85.60;;;;;;4026932;29;19934;-49
2023/11/07 00:18:32;;;;;;;;;;;15.70;85.80;;;;;;4027397;29;20053;-49
2023/11/07 00:21:14;;;;;;;;;;;15.70;86.10;;;;;;4015202;29;19983;-49
2023/11/07 00:23:55;;;;;;;;;;;15.80;86.20;;;;;;4027483;29;19951;-49
2023/11/07 00:26:36;;;;;;;;;;;15.80;86.30;;;;;;4026530;29;20394;-49
2023/11/07 00:29:17;;;;;;;;;;;15.80;86.30;;;;;;4017969;29;20060;-51
2023/11/07 00:31:59;;;;;;;;;;;15.80;86.30;;;;;;4026300;29;20406;-51
2023/11/07 00:34:41;;;;;;;;;;;15.90;86.20;;;;;;4035537;29;19935;-52
2023/11/07 00:37:23;;;;;;;;;;;16.00;85.40;;;;;;4018884;29;19938;-50
2023/11/07 00:40:06;;;;;;;;;;;16.00;85.00;;;;;;4032647;29;20401;-50
2023/11/07 00:42:47;;;;;;;;;;;16.00;85.20;;;;;;4041414;29;19935;-49
2023/11/07 00:45:28;;;;;;;;;;;16.00;85.50;;;;;;4041700;29;20163;-48
2023/11/07 00:48:10;;;;;;;;;;;16.00;85.60;;;;;;4024147;29;19966;-54
2023/11/07 00:50:51;;;;;;;;;;;16.00;85.70;;;;;;4023693;29;20059;-50
2023/11/07 00:53:35;;;;;;;;;;;16.00;85.70;;;;;;4039226;29;19942;-53
2023/11/07 00:56:16;;;;;;;;;;;16.00;85.80;;;;;;4016641;29;19939;-47
2023/11/07 00:58:58;;;;;;;;;;;16.00;85.80;;;;;;4025996;29;19935;-47
2023/11/07 01:01:39;;;;;;;;;;;16.00;85.60;;;;;;4027358;29;19939;-48
2023/11/07 01:04:20;;;;;;;;;;;16.00;85.60;;;;;;4027546;29;20292;-48
2023/11/07 01:07:02;;;;;;;;;;;16.00;85.90;;;;;;4029125;29;20650;-49
2023/11/07 01:09:43;;;;;;;;;;;15.90;85.90;;;;;;4030175;29;19968;-48
2023/11/07 01:12:24;;;;;;;;;;;15.90;85.60;;;;;;4030757;29;19934;-55
2023/11/07 01:15:05;;;;;;;;;;;15.80;85.70;;;;;;4027021;29;20019;-49
2023/11/07 01:17:46;;;;;;;;;;;15.80;85.50;;;;;;4036999;29;19983;-52
2023/11/07 01:20:28;;;;;;;;;;;15.90;85.70;;;;;;4042503;29;20295;-52
2023/11/07 01:23:09;;;;;;;;;;;15.90;85.70;;;;;;4042875;29;19934;-48
2023/11/07 01:25:50;;;;;;;;;;;16.00;85.70;;;;;;4033570;29;19938;-53
2023/11/07 01:28:31;;;;;;;;;;;16.00;85.40;;;;;;4017760;29;19939;-52
2023/11/07 01:31:11;;;;;;;;;;;16.00;85.40;;;;;;4029501;29;20056;-49
2023/11/07 01:33:53;;;;;;;;;;;16.00;86.20;;;;;;4017470;29;19935;-48
2023/11/07 01:36:35;;;;;;;;;;;16.00;85.10;;;;;;4031618;29;19935;-49
2023/11/07 01:39:16;;;;;;;;;;;16.10;85.30;;;;;;4028431;29;19934;-53
2023/11/07 01:41:58;;;;;;;;;;;16.00;84.70;;;;;;4039543;29;19943;-53
2023/11/07 01:44:43;;;;;;;;;;;16.10;84.20;;;;;;4018160;29;20447;-51
2023/11/07 01:47:25;;;;;;;;;;;16.10;84.00;;;;;;4017673;29;20020;-52
2023/11/07 01:50:06;;;;;;;;;;;16.10;84.20;;;;;;4016913;29;19935;-50
2023/11/07 01:52:48;;;;;;;;;;;16.00;84.00;;;;;;4029164;29;19935;-53
2023/11/07 01:55:29;;;;;;;;;;;16.00;83.50;;;;;;4029590;29;20682;-52
2023/11/07 01:58:13;;;;;;;;;;;16.00;84.50;;;;;;4008405;29;19951;-52
2023/11/07 02:00:55;;;;;;;;;;;16.10;84.60;;;;;;4027684;29;20017;-52
2023/11/07 02:03:37;;;;;;;;;;;16.10;84.70;;;;;;4016536;29;20713;-51
2023/11/07 02:06:18;;;;;;;;;;;16.10;84.60;;;;;;4021469;29;19942;-54
2023/11/07 02:09:00;;;;;;;;;;;16.20;84.70;;;;;;4021328;29;19943;-50
2023/11/07 02:11:40;;;;;;;;;;;16.20;84.70;;;;;;4045019;29;19938;-50
2023/11/07 02:14:28;;;;;;;;;;;16.20;84.70;;;;;;4043297;29;20508;-48
2023/11/07 02:17:09;;;;;;;;;;;16.20;84.60;;;;;;4045193;29;19939;-49
2023/11/07 02:19:49;;;;;;;;;;;16.20;84.00;;;;;;4032834;29;19934;-51
2023/11/07 02:22:31;;;;;;;;;;;16.20;84.20;;;;;;4044784;29;20007;-52
2023/11/07 02:25:14;;;;;;;;;;;16.10;84.30;;;;;;4027042;29;19955;-48
2023/11/07 02:27:55;;;;;;;;;;;16.10;84.60;;;;;;4019163;29;19938;-50
2023/11/07 02:30:37;;;;;;;;;;;16.10;85.40;;;;;;4011414;29;19939;-48
2023/11/07 02:33:19;;;;;;;;;;;16.10;84.20;;;;;;4013643;29;19936;-48
2023/11/07 02:36:01;;;;;;;;;;;16.10;84.50;;;;;;4013505;29;19939;-48
2023/11/07 02:38:41;;;;;;;;;;;16.10;85.70;;;;;;4020212;29;20407;-47
2023/11/07 02:41:24;;;;;;;;;;;16.10;85.00;;;;;;4029457;29;19992;-49
2023/11/07 02:44:05;;;;;;;;;;;16.10;85.10;;;;;;4021468;29;19935;-51
2023/11/07 02:46:48;;;;;;;;;;;16.20;84.30;;;;;;4011483;29;20764;-48
2023/11/07 02:49:29;;;;;;;;;;;16.20;84.30;;;;;;4019226;29;19991;-51
2023/11/07 02:52:10;;;;;;;;;;;16.20;84.70;;;;;;4013300;29;20595;-49
2023/11/07 02:54:52;;;;;;;;;;;16.20;85.30;;;;;;4012339;29;19935;-52
2023/11/07 02:57:34;;;;;;;;;;;16.20;84.30;;;;;;4012404;29;20349;-53
2023/11/07 03:00:15;;;;;;;;;;;16.20;84.10;;;;;;4013597;29;20049;-50
2023/11/07 03:02:56;;;;;;;;;;;16.20;84.00;;;;;;4011689;29;19956;-54
2023/11/07 03:05:37;;;;;;;;;;;16.20;84.40;;;;;;4012944;29;20030;-53
2023/11/07 03:08:18;;;;;;;;;;;16.20;84.40;;;;;;4012977;29;19935;-53
2023/11/07 03:10:59;;;;;;;;;;;16.20;84.30;;;;;;4013653;29;19975;-52
2023/11/07 03:13:41;;;;;;;;;;;16.20;84.30;;;;;;4012975;29;19974;-52
2023/11/07 03:16:22;;;;;;;;;;;16.20;84.40;;;;;;4023142;29;19936;-53
2023/11/07 03:19:07;;;;;;;;;;;16.10;84.30;;;;;;4013602;29;19987;-49
2023/11/07 03:21:48;;;;;;;;;;;16.10;84.70;;;;;;4013933;29;19955;-50
2023/11/07 03:24:31;;;;;;;;;;;16.10;84.10;;;;;;4014049;29;19955;-49
2023/11/07 03:27:14;;;;;;;;;;;16.10;84.40;;;;;;4029515;29;20299;-47
2023/11/07 03:29:56;;;;;;;;;;;16.20;84.50;;;;;;4033099;29;19942;-52
2023/11/07 03:32:37;;;;;;;;;;;16.20;84.40;;;;;;4032110;29;19954;-48
2023/11/07 03:35:18;;;;;;;;;;;16.20;84.30;;;;;;4042637;29;20342;-47
2023/11/07 03:37:58;;;;;;;;;;;16.20;84.40;;;;;;4037347;29;20287;-48
2023/11/07 03:40:39;;;;;;;;;;;16.20;84.20;;;;;;4028168;29;19939;-48
2023/11/07 03:43:19;;;;;;;;;;;16.20;84.00;;;;;;4028423;29;20067;-47
2023/11/07 03:46:02;;;;;;;;;;;16.30;83.80;;;;;;4028019;29;19939;-48
2023/11/07 03:48:44;;;;;;;;;;;16.30;83.50;;;;;;4028137;29;20402;-47
2023/11/07 03:51:25;;;;;;;;;;;16.20;84.00;;;;;;4027749;29;19954;-48
2023/11/07 03:54:06;;;;;;;;;;;16.30;83.80;;;;;;4028286;29;20009;-46
2023/11/07 03:56:47;;;;;;;;;;;16.20;83.70;;;;;;4027650;29;19935;-46
2023/11/07 03:59:28;;;;;;;;;;;16.20;84.80;;;;;;4027392;29;19935;-47
2023/11/07 04:02:11;;;;;;;;;;;16.10;84.40;;;;;;4027712;29;19935;-53
2023/11/07 04:04:53;;;;;;;;;;;16.10;84.70;;;;;;4032468;29;19957;-47
2023/11/07 04:07:34;;;;;;;;;;;16.20;84.70;;;;;;4043616;29;20382;-50
2023/11/07 04:10:14;;;;;;;;;;;16.30;84.70;;;;;;4043911;29;20083;-50
2023/11/07 04:12:54;;;;;;;;;;;16.30;84.30;;;;;;4042851;29;19935;-49
2023/11/07 04:15:36;;;;;;;;;;;16.30;84.00;;;;;;4042625;29;20939;-48
2023/11/07 04:18:18;;;;;;;;;;;16.30;83.80;;;;;;4031593;29;19935;-51
2023/11/07 04:21:00;;;;;;;;;;;16.30;84.00;;;;;;4043083;29;20389;-46
2023/11/07 04:23:41;;;;;;;;;;;16.30;83.90;;;;;;4043220;29;19934;-49
2023/11/07 04:26:22;;;;;;;;;;;16.40;83.40;;;;;;4033042;29;20005;-46
2023/11/07 04:29:04;;;;;;;;;;;16.40;83.90;;;;;;4042843;29;20012;-46
2023/11/07 04:31:44;;;;;;;;;;;16.40;84.10;;;;;;4043420;29;19950;-48
2023/11/07 04:34:27;;;;;;;;;;;16.30;83.80;;;;;;4043795;29;20509;-48
2023/11/07 04:37:07;;;;;;;;;;;16.30;84.20;;;;;;4027809;29;19941;-48
2023/11/07 04:39:48;;;;;;;;;;;16.40;85.10;;;;;;4027912;29;20671;-47
2023/11/07 04:42:28;;;;;;;;;;;16.40;84.50;;;;;;4027820;29;19939;-48
2023/11/07 04:45:11;;;;;;;;;;;16.40;84.50;;;;;;4027577;29;20581;-49
2023/11/07 04:47:52;;;;;;;;;;;16.40;84.40;;;;;;4027243;29;19983;-50
2023/11/07 04:50:35;;;;;;;;;;;16.40;84.60;;;;;;4027560;29;19938;-50
2023/11/07 04:53:15;;;;;;;;;;;16.40;84.70;;;;;;4027304;29;21474;-50
2023/11/07 04:55:56;;;;;;;;;;;16.40;84.10;;;;;;4026920;29;19935;-46
2023/11/07 04:58:37;;;;;;;;;;;16.50;84.10;;;;;;4027234;29;19939;-51
2023/11/07 05:01:35;;;;;;;;;;;16.40;83.80;;;;;;4027378;29;20431;-49
2023/11/07 05:04:16;;;;;;;;;;;16.40;84.00;;;;;;4028038;29;20031;-48
2023/11/07 05:06:59;;;;;;;;;;;16.30;83.40;;;;;;4038368;29;20423;-51
2023/11/07 05:09:39;;;;;;;;;;;16.30;84.30;;;;;;4042769;29;19938;-51
2023/11/07 05:12:20;;;;;;;;;;;16.30;85.50;;;;;;4042886;29;19989;-49
2023/11/07 05:15:01;;;;;;;;;;;16.40;84.10;;;;;;4042537;29;19999;-52
2023/11/07 05:17:41;;;;;;;;;;;16.40;84.00;;;;;;4027322;29;19939;-49
2023/11/07 05:20:22;;;;;;;;;;;16.40;83.80;;;;;;4015688;29;19935;-51
2023/11/07 05:23:04;;;;;;;;;;;16.40;84.90;;;;;;4015946;29;19950;-52
2023/11/07 05:25:45;;;;;;;;;;;16.40;83.90;;;;;;4028389;29;19935;-50
2023/11/07 05:28:25;;;;;;;;;;;16.40;84.20;;;;;;4027101;29;19954;-49
2023/11/07 05:31:06;;;;;;;;;;;16.40;85.20;;;;;;4027113;29;20002;-47
2023/11/07 05:33:47;;;;;;;;;;;16.40;84.20;;;;;;4027349;29;19935;-48
2023/11/07 05:36:28;;;;;;;;;;;16.50;84.00;;;;;;4037355;29;20398;-49
2023/11/07 05:39:10;;;;;;;;;;;16.50;83.80;;;;;;4042819;29;20019;-46
2023/11/07 05:41:51;;;;;;;;;;;16.50;83.80;;;;;;4042513;29;20373;-48
2023/11/07 05:44:31;;;;;;;;;;;16.40;83.70;;;;;;4027719;29;19967;-47
2023/11/07 05:47:12;;;;;;;;;;;16.40;84.00;;;;;;4027516;29;20311;-47
2023/11/07 05:49:53;;;;;;;;;;;16.30;84.00;;;;;;4015878;29;20735;-47
2023/11/07 05:52:35;;;;;;;;;;;16.30;84.40;;;;;;4030177;29;19934;-47
2023/11/07 05:55:17;;;;;;;;;;;16.30;84.30;;;;;;4039895;29;20134;-49
2023/11/07 05:57:58;;;;;;;;;;;16.40;84.30;;;;;;4019335;29;19987;-50
2023/11/07 06:00:39;;;;;;;;;;;16.40;84.20;;;;;;4026969;29;19934;-48
2023/11/07 06:03:20;;;;;;;;;;;16.40;83.90;;;;;;4034184;29;19950;-48
2023/11/07 06:06:01;;;;;;;;;;;16.40;83.70;;;;;;4037960;29;20395;-48
2023/11/07 06:08:42;;;;;;;;;;;16.40;83.50;;;;;;4042155;29;19935;-48
2023/11/07 06:11:24;;;;;;;;;;;16.40;83.60;;;;;;4043555;29;19938;-53
2023/11/07 06:14:05;;;;;;;;;;;16.40;83.90;;;;;;4030150;29;19984;-51
2023/11/07 06:16:46;;;;;;;;;;;16.40;84.20;;;;;;4029275;29;20019;-50
2023/11/07 06:19:27;;;;;;;;;;;16.40;84.30;;;;;;4017779;29;19935;-52
2023/11/07 06:22:08;;;;;;;;;;;16.40;84.60;;;;;;4029639;29;19935;-50
2023/11/07 06:24:49;;;;;;;;;;;16.40;83.40;;;;;;4030106;29;19942;-49
2023/11/07 06:27:30;;;;;;;;;;;16.40;83.50;;;;;;4018215;29;20480;-50
2023/11/07 06:30:12;;;;;;;;;;;16.40;83.70;;;;;;4028860;29;19963;-48
2023/11/07 06:32:53;;;;;;;;;;;16.40;83.50;;;;;;4029624;29;19990;-52
2023/11/07 06:35:34;;;;;;;;;;;16.40;83.60;;;;;;4037073;29;19950;-48
2023/11/07 06:38:14;;;;;;;;;;;16.50;83.70;;;;;;4044755;29;19938;-46
2023/11/07 06:40:55;;;;;;;;;;;16.50;83.50;;;;;;4044881;29;19949;-46
2023/11/07 06:43:38;;;;;;;;;;;16.60;83.80;;;;;;4044355;29;20369;-49
2023/11/07 06:46:19;;;;;;;;;;;16.60;83.90;;;;;;4041240;29;20051;-51
2023/11/07 06:49:00;;;;;;;;;;;16.50;83.20;;;;;;4039870;29;19939;-51
2023/11/07 06:51:42;;;;;;;;;;;16.40;83.60;;;;;;4017584;29;19938;-51
2023/11/07 06:54:23;;;;;;;;;;;16.40;84.00;;;;;;4053991;29;20326;-49
2023/11/07 06:57:04;;;;;;;;;;;16.40;84.20;;;;;;4046538;29;19982;-49
2023/11/07 06:59:47;;;;;;;;;;;16.40;84.20;;;;;;4044414;29;19934;-51
2023/11/07 07:02:28;;;;;;;;;;;16.50;84.10;;;;;;4038495;29;20019;-46
2023/11/07 07:05:12;;;;;;;;;;;16.50;83.30;;;;;;4032993;29;19939;-49
2023/11/07 07:07:54;;;;;;;;;;;16.50;83.50;;;;;;4044327;29;20387;-49
2023/11/07 07:10:35;;;;;;;;;;;16.50;83.40;;;;;;4031725;29;19934;-46
2023/11/07 07:13:16;;;;;;;;;;;16.50;83.20;;;;;;4028728;29;19983;-45
2023/11/07 07:15:59;;;;;;;;;;;16.40;83.10;;;;;;4016364;29;19938;-52
2023/11/07 07:18:41;;;;;;;;;;;16.40;82.50;;;;;;4016878;29;20014;-49
2023/11/07 07:21:22;;;;;;;;;;;16.40;81.80;;;;;;4028732;29;20272;-47
2023/11/07 07:24:15;;;;;;;;;;;16.40;80.80;;;;;;4028089;29;19968;-50
2023/11/07 07:26:58;;;;;;;;;;;16.40;80.50;;;;;;4027202;29;19975;-55
2023/11/07 07:29:40;;;;;;;;;;;16.50;79.60;;;;;;4028703;29;19935;-53
2023/11/07 07:32:22;;;;;;;;;;;16.50;79.00;;;;;;4027645;29;19934;-53
2023/11/07 07:35:09;;;;;;;;;;;16.50;78.50;;;;;;4028555;29;20409;-52
2023/11/07 07:37:51;;;;;;;;;;;16.50;78.20;;;;;;4037273;29;19934;-50
2023/11/07 07:40:32;;;;;;;;;;;16.40;78.80;;;;;;4044203;29;19982;-52
2023/11/07 07:43:13;;;;;;;;;;;16.30;77.80;;;;;;4028174;29;20147;-50
2023/11/07 07:45:55;;;;;;;;;;;16.30;77.80;;;;;;4028475;29;19943;-54
2023/11/07 07:48:38;;;;;;;;;;;16.20;77.90;;;;;;4035725;29;19942;-49
2023/11/07 07:51:19;;;;;;;;;;;16.10;77.90;;;;;;4028089;29;19943;-50
2023/11/07 07:54:01;;;;;;;;;;;16.00;78.10;;;;;;4015652;29;20014;-52
2023/11/07 07:56:42;;;;;;;;;;;16.00;78.00;;;;;;4031995;29;19936;-50
2023/11/07 07:59:23;;;;;;;;;;;16.00;78.10;;;;;;4033122;29;20411;-50
2023/11/07 08:02:06;;;;;;;;;;;16.00;78.00;;;;;;4033866;29;20027;-49
2023/11/07 08:04:49;;;;;;;;;;;16.00;77.90;;;;;;4016589;29;19983;-49
2023/11/07 08:07:33;;;;;;;;;;;15.90;78.00;;;;;;4027529;29;20300;-50
2023/11/07 08:10:19;;;;;;;;;;;15.90;78.00;;;;;;4027723;29;19964;-50
2023/11/07 08:13:00;;;;;;;;;;;15.80;78.30;;;;;;4028959;29;19934;-51
2023/11/07 08:15:41;;;;;;;;;;;15.80;79.00;;;;;;4037333;29;19939;-49
2023/11/07 08:18:22;;;;;;;;;;;15.80;79.00;;;;;;4025618;29;19939;-49
2023/11/07 08:21:05;;;;;;;;;;;15.80;79.00;;;;;;4034062;29;20287;-54
2023/11/07 08:23:45;;;;;;;;;;;15.80;80.10;;;;;;4020971;29;19935;-52
2023/11/07 08:26:27;;;;;;;;;;;15.80;79.20;;;;;;4042128;29;19938;-50
2023/11/07 08:29:08;;;;;;;;;;;15.90;79.00;;;;;;4030796;29;19938;-49
2023/11/07 08:31:48;;;;;;;;;;;16.00;78.70;;;;;;4054562;29;19987;-52
2023/11/07 08:34:32;;;;;;;;;;;16.00;78.20;;;;;;4056914;29;19938;-53
2023/11/07 08:37:15;;;;;;;;;;;16.00;78.10;;;;;;4042988;29;19939;-49
2023/11/07 08:39:57;;;;;;;;;;;16.10;78.60;;;;;;4040780;29;20410;-51
2023/11/07 08:42:43;;;;;;;;;;;16.10;77.70;;;;;;4026877;29;20399;-51
2023/11/07 08:45:24;;;;;;;;;;;16.10;77.10;;;;;;4025832;29;19940;-48
2023/11/07 08:48:06;;;;;;;;;;;16.10;76.90;;;;;;4015374;29;20443;-49
2023/11/07 08:50:47;;;;;;;;;;;16.10;76.90;;;;;;4026477;29;19934;-47
2023/11/07 08:53:29;;;;;;;;;;;16.10;77.90;;;;;;4027198;29;19935;-48
2023/11/07 08:56:09;;;;;;;;;;;16.00;77.00;;;;;;4026950;29;20548;-48
2023/11/07 08:58:50;;;;;;;;;;;16.00;77.10;;;;;;4018958;29;19935;-47
2023/11/07 09:01:31;;;;;;;;;;;15.90;77.10;;;;;;4027013;29;20019;-47
2023/11/07 09:04:13;;;;;;;;;;;15.90;77.20;;;;;;4027014;29;20439;-48
2023/11/07 09:06:57;;;;;;;;;;;15.80;77.20;;;;;;4038442;29;20423;-47
2023/11/07 09:09:39;;;;;;;;;;;15.80;77.40;;;;;;4041128;29;19974;-48
2023/11/07 09:12:20;;;;;;;;;;;15.80;77.30;;;;;;4026831;29;19934;-47
2023/11/07 09:15:05;;;;;;;;;;;15.80;77.10;;;;;;4026661;29;19935;-47
2023/11/07 09:17:46;;;;;;;;;;;15.80;77.10;;;;;;4026855;29;19939;-48
2023/11/07 09:20:27;;;;;;;;;;;15.80;77.00;;;;;;4026972;29;19992;-48
2023/11/07 09:23:08;;;;;;;;;;;15.80;77.00;;;;;;4026779;29;19934;-47
2023/11/07 09:25:51;;;;;;;;;;;15.80;77.10;;;;;;4031985;29;19934;-51
2023/11/07 09:28:31;;;;;;;;;;;15.80;77.20;;;;;;4041790;29;19965;-47
2023/11/07 09:31:13;;;;;;;;;;;15.80;78.20;;;;;;4042081;29;19938;-49
2023/11/07 09:33:53;;;;;;;;;;;15.80;77.30;;;;;;4042203;29;20071;-48
2023/11/07 09:36:34;;;;;;;;;;;15.70;77.30;;;;;;4028409;29;19939;-50
2023/11/07 09:39:15;;;;;;;;;;;15.70;77.50;;;;;;4037597;29;20142;-49
2023/11/07 09:41:58;;;;;;;;;;;15.60;77.60;;;;;;4042275;29;20018;-50
2023/11/07 09:44:39;;;;;;;;;;;15.60;77.80;;;;;;4038799;29;19934;-50
2023/11/07 09:47:19;;;;;;;;;;;15.50;78.00;;;;;;4030088;29;20080;-49
2023/11/07 09:50:02;;;;;;;;;;;15.50;78.20;;;;;;4018569;29;20023;-52
2023/11/07 09:52:44;;;;;;;;;;;15.50;78.50;;;;;;4029921;29;20355;-50
2023/11/07 09:55:28;;;;;;;;;;;15.40;78.80;;;;;;4030874;29;20068;-48
2023/11/07 09:58:13;;;;;;;;;;;15.40;78.90;;;;;;4036815;29;19935;-49
2023/11/07 10:00:58;;;;;;;;;;;15.40;79.00;;;;;;4042425;29;20342;-49
2023/11/07 10:03:39;;;;;;;;;;;15.30;79.10;;;;;;4037038;29;20024;-49
2023/11/07 10:06:21;;;;;;;;;;;15.30;80.10;;;;;;4060470;29;19950;-48
2023/11/07 10:09:02;;;;;;;;;;;15.30;79.30;;;;;;4048682;29;20407;-51
2023/11/07 10:11:46;;;;;;;;;;;15.30;79.20;;;;;;4057430;29;20066;-49
2023/11/07 10:14:28;;;;;;;;;;;15.40;79.10;;;;;;4037161;29;19939;-49
2023/11/07 10:17:19;;;;;;;;;;;15.40;79.10;;;;;;4029742;29;19935;-49
2023/11/07 10:20:05;;;;;;;;;;;15.40;79.00;;;;;;4030572;29;19990;-50
2023/11/07 10:22:46;;;;;;;;;;;15.40;78.90;;;;;;4044715;29;20012;-48
2023/11/07 10:25:28;;;;;;;;;;;15.40;79.00;;;;;;4044782;29;20422;-48
2023/11/07 10:28:09;;;;;;;;;;;15.40;79.40;;;;;;4044542;29;20071;-48
2023/11/07 10:30:52;;;;;;;;;;;15.40;80.10;;;;;;4044183;29;19946;-52
2023/11/07 10:33:34;;;;;;;;;;;15.50;79.60;;;;;;4030488;29;19987;-52
2023/11/07 10:36:15;;;;;;;;;;;15.50;79.50;;;;;;4028958;29;20443;-50
2023/11/07 10:38:56;;;;;;;;;;;15.50;79.80;;;;;;4036300;29;19935;-50
2023/11/07 10:41:37;;;;;;;;;;;15.50;79.90;;;;;;4043878;29;19938;-51
2023/11/07 10:44:22;;;;;;;;;;;15.40;80.00;;;;;;4038802;29;20389;-50
2023/11/07 10:47:04;;;;;;;;;;;15.50;80.30;;;;;;4017889;29;19987;-50
2023/11/07 10:49:45;;;;;;;;;;;15.60;80.60;;;;;;4028471;29;19938;-50
2023/11/07 10:52:27;;;;;;;;;;;15.70;80.60;;;;;;4020346;29;20586;-49
2023/11/07 10:55:09;;;;;;;;;;;15.70;80.60;;;;;;4044361;29;19938;-49
2023/11/07 10:57:56;;;;;;;;;;;15.80;79.80;;;;;;4040084;29;20014;-52
2023/11/07 11:00:37;;;;;;;;;;;15.80;79.60;;;;;;4044431;29;20291;-51
2023/11/07 11:03:19;;;;;;;;;;;15.80;79.70;;;;;;4042738;29;20675;-49
2023/11/07 11:06:02;;;;;;;;;;;15.80;80.10;;;;;;4033290;29;20288;-51
2023/11/07 11:08:45;;;;;;;;;;;15.80;79.90;;;;;;4041406;29;20287;-49
2023/11/07 11:11:26;;;;;;;;;;;15.80;80.20;;;;;;4041511;29;19934;-50
2023/11/07 11:14:09;;;;;;;;;;;15.70;80.50;;;;;;4032304;29;20375;-47
2023/11/07 11:16:51;;;;;;;;;;;15.80;80.40;;;;;;4027742;29;19982;-48
2023/11/07 11:19:35;;;;;;;;;;;15.70;80.60;;;;;;4028591;29;19935;-47
2023/11/07 11:22:20;;;;;;;;;;;15.70;80.60;;;;;;4031918;29;19938;-48
2023/11/07 11:25:12;;;;;;;;;;;15.70;81.10;;;;;;4043571;29;19939;-50
2023/11/07 11:27:56;;;;;;;;;;;15.70;80.90;;;;;;4042496;29;19979;-47
2023/11/07 11:30:38;;;;;;;;;;;15.70;81.50;;;;;;4028907;29;19939;-52
2023/11/07 11:33:25;;;;;;;;;;;15.60;81.20;;;;;;4028516;29;20060;-50
2023/11/07 11:36:20;;;;;;;;;;;15.60;81.20;;;;;;4027049;29;19935;-50
2023/11/07 11:39:23;;;;;;;;;;;15.60;82.20;;;;;;4028281;29;20076;-56
2023/11/07 11:42:09;;;;;;;;;;;15.60;81.20;;;;;;4016638;29;19939;-51
2023/11/07 11:45:04;;;;;;;;;;;15.50;80.80;;;;;;4015881;29;20064;-52
2023/11/07 11:47:52;;;;;;;;;;;15.50;81.30;;;;;;4027067;29;20084;-50
2023/11/07 11:50:37;;;;;;;;;;;15.50;81.80;;;;;;4029550;29;19934;-50
2023/11/07 11:53:33;;;;;;;;;;;15.40;81.70;;;;;;4031579;29;20079;-55
2023/11/07 11:56:15;;;;;;;;;;;15.40;81.90;;;;;;4012591;29;19938;-51
2023/11/07 11:59:06;;;;;;;;;;;15.40;82.30;;;;;;4040126;29;19939;-54
2023/11/07 12:01:49;;;;;;;;;;;15.40;82.30;;;;;;4027196;29;19942;-51
2023/11/07 12:04:30;;;;;;;;;;;15.40;82.60;;;;;;4030705;29;19983;-49
2023/11/07 12:07:22;;;;;;;;;;;15.40;82.50;;;;;;4016857;29;19938;-52
2023/11/07 12:10:06;;;;;;;;;;;15.30;82.60;;;;;;4026529;29;19942;-49
2023/11/07 12:12:57;;;;;;;;;;;15.30;82.50;;;;;;4040894;29;19994;-52
2023/11/07 12:15:43;;;;;;;;;;;15.30;82.80;;;;;;4018720;29;19942;-50
2023/11/07 12:18:24;;;;;;;;;;;15.30;83.30;;;;;;4040569;29;20075;-50
2023/11/07 12:21:05;;;;;;;;;;;15.30;83.90;;;;;;4018383;29;19998;-49
2023/11/07 12:23:45;;;;;;;;;;;15.30;85.30;;;;;;4030741;29;20014;-49
2023/11/07 12:26:39;;;;;;;;;;;15.30;86.90;;;;;;4039742;29;19979;-47
2023/11/07 12:29:29;;;;;;;;;;;15.40;86.10;;;;;;4025225;29;19994;-47
2023/11/07 12:32:19;;;;;;;;;;;15.50;85.90;;;;;;4039692;29;19938;-46
2023/11/07 12:35:00;;;;;;;;;;;15.50;85.70;;;;;;4027537;29;20286;-45
2023/11/07 12:37:41;;;;;;;;;;;15.60;85.60;;;;;;4030370;29;19938;-48
2023/11/07 12:40:21;;;;;;;;;;;15.70;85.60;;;;;;4025555;29;19939;-45
2023/11/07 12:43:03;;;;;;;;;;;15.70;86.10;;;;;;4030588;29;19938;-49
2023/11/07 12:45:47;;;;;;;;;;;15.70;85.90;;;;;;4023292;29;19935;-51
2023/11/07 12:48:28;;;;;;;;;;;15.80;86.00;;;;;;4028084;29;19939;-49
2023/11/07 12:51:09;;;;;;;;;;;15.80;86.30;;;;;;4025300;29;19939;-48
2023/11/07 12:53:51;;;;;;;;;;;15.80;86.50;;;;;;4036515;29;19939;-47
2023/11/07 12:56:32;;;;;;;;;;;15.80;86.60;;;;;;4036441;29;20641;-48
2023/11/07 12:59:13;;;;;;;;;;;15.80;86.60;;;;;;4038334;29;19934;-51
2023/11/07 13:01:55;;;;;;;;;;;15.90;86.90;;;;;;4024175;29;20447;-49
2023/11/07 13:04:36;;;;;;;;;;;15.90;87.00;;;;;;4037441;29;19951;-47
2023/11/07 13:07:17;;;;;;;;;;;15.90;86.90;;;;;;4026565;29;20074;-44
2023/11/07 13:09:58;;;;;;;;;;;15.90;87.10;;;;;;4037934;29;19953;-45
2023/11/07 13:12:39;;;;;;;;;;;15.90;86.90;;;;;;4025028;29;19943;-46
2023/11/07 13:15:20;;;;;;;;;;;15.90;86.80;;;;;;4030590;29;19939;-47
2023/11/07 13:18:02;;;;;;;;;;;15.90;86.70;;;;;;4038635;29;20820;-44
2023/11/07 13:20:45;;;;;;;;;;;15.90;86.60;;;;;;4041826;29;20398;-44
2023/11/07 13:23:26;;;;;;;;;;;15.90;86.80;;;;;;4021068;29;19978;-43
2023/11/07 13:26:08;;;;;;;;;;;15.90;86.90;;;;;;4043143;29;20079;-47
2023/11/07 13:28:49;;;;;;;;;;;15.90;87.00;;;;;;4034211;29;19939;-48
2023/11/07 13:31:30;;;;;;;;;;;15.80;87.00;;;;;;4034012;29;19939;-47
2023/11/07 13:34:12;;;;;;;;;;;15.80;87.20;;;;;;4037368;29;19934;-52
2023/11/07 13:36:54;;;;;;;;;;;15.80;87.30;;;;;;4028001;29;19999;-48
2023/11/07 13:39:38;;;;;;;;;;;15.80;87.50;;;;;;4033833;29;19997;-45
2023/11/07 13:42:19;;;;;;;;;;;15.80;87.50;;;;;;4040190;29;20347;-44
2023/11/07 13:44:59;;;;;;;;;;;15.80;87.40;;;;;;4025744;29;19934;-47
2023/11/07 13:47:40;;;;;;;;;;;15.80;88.10;;;;;;4042539;29;20351;-47
2023/11/07 13:50:23;;;;;;;;;;;15.80;87.30;;;;;;4042173;29;19934;-45
2023/11/07 13:53:05;;;;;;;;;;;15.90;87.20;;;;;;4030469;29;19938;-44
2023/11/07 13:55:46;;;;;;;;;;;15.90;88.10;;;;;;4028009;29;20471;-47
2023/11/07 13:58:27;;;;;;;;;;;16.00;86.90;;;;;;4027966;29;20099;-48
2023/11/07 14:01:08;;;;;;;;;;;16.00;86.40;;;;;;4030345;29;19954;-51
2023/11/07 14:03:49;;;;;;;;;;;16.10;86.10;;;;;;4027974;29;20308;-49
2023/11/07 14:06:32;;;;;;;;;;;16.10;85.20;;;;;;4039804;29;19982;-49
2023/11/07 14:09:13;;;;;;;;;;;16.10;84.50;;;;;;4041134;29;19982;-49
2023/11/07 14:11:53;;;;;;;;;;;16.10;84.70;;;;;;4027943;29;19967;-48
2023/11/07 14:14:34;;;;;;;;;;;16.10;84.80;;;;;;4029037;29;20382;-49
2023/11/07 14:17:15;;;;;;;;;;;16.10;84.40;;;;;;4039204;29;20368;-48
2023/11/07 14:19:57;;;;;;;;;;;16.10;83.80;;;;;;4036522;29;19942;-51
2023/11/07 14:22:39;;;;;;;;;;;16.10;83.30;;;;;;4030905;29;19938;-47
2023/11/07 14:25:20;;;;;;;;;;;16.00;83.70;;;;;;4039777;29;19975;-47
2023/11/07 14:28:04;;;;;;;;;;;16.00;83.70;;;;;;4031044;29;19935;-48
2023/11/07 14:30:45;;;;;;;;;;;16.00;84.00;;;;;;4028075;29;19938;-44
2023/11/07 14:33:26;;;;;;;;;;;15.90;84.10;;;;;;4030378;29;20019;-45
2023/11/07 14:36:10;;;;;;;;;;;15.90;84.30;;;;;;4032038;29;20280;-45
2023/11/07 14:38:53;;;;;;;;;;;15.90;84.00;;;;;;4029859;29;19966;-48
2023/11/07 14:41:35;;;;;;;;;;;15.80;84.30;;;;;;4027470;29;20122;-48
2023/11/07 14:44:16;;;;;;;;;;;15.80;84.60;;;;;;4035429;29;19935;-48
2023/11/07 14:46:56;;;;;;;;;;;15.80;84.60;;;;;;4042000;29;20070;-48
2023/11/07 14:49:39;;;;;;;;;;;15.80;84.80;;;;;;4029683;29;19934;-52
2023/11/07 14:52:19;;;;;;;;;;;15.80;85.00;;;;;;4018987;29;19978;-50
2023/11/07 14:55:04;;;;;;;;;;;15.70;84.90;;;;;;4035166;29;20010;-51
2023/11/07 14:57:45;;;;;;;;;;;15.70;84.60;;;;;;4033551;29;20073;-51
2023/11/07 15:00:27;;;;;;;;;;;15.70;84.50;;;;;;4035535;29;19938;-54
2023/11/07 15:03:09;;;;;;;;;;;15.60;85.40;;;;;;4029971;29;20080;-55
2023/11/07 15:05:51;;;;;;;;;;;15.60;87.30;;;;;;4035356;29;19939;-47
2023/11/07 15:08:32;;;;;;;;;;;15.60;87.20;;;;;;4035704;29;19998;-53
2023/11/07 15:11:14;;;;;;;;;;;15.60;87.80;;;;;;4028552;29;19934;-49
2023/11/07 15:13:56;;;;;;;;;;;15.60;87.80;;;;;;4028339;29;19938;-51
2023/11/07 15:16:36;;;;;;;;;;;15.60;87.30;;;;;;4042141;29;19942;-52
2023/11/07 15:19:17;;;;;;;;;;;15.60;86.70;;;;;;4043366;29;20316;-48
2023/11/07 15:21:59;;;;;;;;;;;15.50;87.60;;;;;;4016964;29;20014;-51
2023/11/07 15:24:40;;;;;;;;;;;15.50;86.80;;;;;;4027951;29;19936;-52
2023/11/07 15:27:22;;;;;;;;;;;15.50;86.90;;;;;;4027763;29;20469;-51
2023/11/07 15:30:04;;;;;;;;;;;15.50;86.90;;;;;;4028012;29;20034;-52
2023/11/07 15:32:47;;;;;;;;;;;15.40;86.50;;;;;;4027891;29;19939;-52
2023/11/07 15:35:29;;;;;;;;;;;15.40;86.10;;;;;;4016415;29;19938;-50
2023/11/07 15:38:10;;;;;;;;;;;15.40;86.40;;;;;;4039510;29;20022;-50
2023/11/07 15:40:51;;;;;;;;;;;15.30;86.80;;;;;;4027942;29;20066;-50
2023/11/07 15:43:33;;;;;;;;;;;15.30;87.00;;;;;;4027331;29;19935;-50